Time;durP1;ratioP1;P1;durP2;ratioP2;P2;SDS_P1;SDS_P2;PMS_P1;PMS_P2;Temp;Humidity;BMP_temperature;BMP_pressure;BME280_temperature;BME280_humidity;BME280_pressure;Samples;Min_cycle;Max_cycle;Signal;HPM_P1;HPM_P2
2023/11/16 00:00:12;;;;;;;4.87;1.30;;;8.70;99.90;;;;;;5031263;28;20028;-55
2023/11/16 00:02:42;;;;;;;7.30;1.50;;;8.70;99.90;;;;;;5031280;28;20421;-55
2023/11/16 00:05:13;;;;;;;10.47;1.63;;;8.70;99.90;;;;;;5031408;28;20037;-52
2023/11/16 00:07:43;;;;;;;7.07;1.40;;;8.70;99.90;;;;;;5031143;28;20091;-55
2023/11/16 00:10:09;;;;;;;7.43;1.40;;;8.70;99.90;;;;;;5030886;28;20037;-54
2023/11/16 00:12:34;;;;;;;9.90;1.93;;;8.70;99.90;;;;;;5030961;28;20037;-53
2023/11/16 00:15:00;;;;;;;4.73;1.70;;;8.80;99.90;;;;;;5031098;28;20044;-55
2023/11/16 00:17:28;;;;;;;12.47;2.73;;;8.70;99.90;;;;;;5030579;28;20366;-55
2023/11/16 00:19:57;;;;;;;6.03;1.53;;;8.70;99.90;;;;;;5030312;28;20029;-54
2023/11/16 00:22:22;;;;;;;9.98;1.48;;;8.70;99.90;;;;;;5030678;28;20033;-54
2023/11/16 00:24:48;;;;;;;8.03;1.93;;;8.70;99.90;;;;;;5030836;28;20047;-56
2023/11/16 00:27:14;;;;;;;8.87;1.57;;;8.70;99.90;;;;;;5030671;28;20032;-54
2023/11/16 00:29:39;;;;;;;6.57;2.40;;;8.70;99.90;;;;;;5028919;28;20029;-55
2023/11/16 00:32:05;;;;;;;5.43;1.60;;;8.70;99.90;;;;;;5029318;28;20068;-56
2023/11/16 00:34:31;;;;;;;9.27;1.67;;;8.70;99.90;;;;;;5029281;28;20220;-56
2023/11/16 00:36:56;;;;;;;7.27;1.27;;;8.80;99.90;;;;;;5029348;28;20064;-55
2023/11/16 00:39:23;;;;;;;8.93;1.43;;;8.80;99.90;;;;;;5028766;28;20056;-55
2023/11/16 00:41:48;;;;;;;5.23;1.23;;;8.70;99.90;;;;;;5030603;28;20057;-55
2023/11/16 00:44:19;;;;;;;4.37;1.23;;;8.70;99.90;;;;;;5030490;28;20549;-55
2023/11/16 00:46:46;;;;;;;7.43;1.83;;;8.80;99.90;;;;;;5029445;28;20128;-55
2023/11/16 00:49:11;;;;;;;9.03;2.10;;;8.70;99.90;;;;;;5028686;28;20030;-54
2023/11/16 00:51:37;;;;;;;8.10;1.90;;;8.80;99.90;;;;;;5029006;28;20504;-55
2023/11/16 00:54:03;;;;;;;6.00;1.67;;;8.80;99.90;;;;;;5029127;28;20041;-55
2023/11/16 00:56:28;;;;;;;4.63;1.50;;;8.70;99.90;;;;;;5028951;28;20029;-56
2023/11/16 00:58:55;;;;;;;4.63;1.27;;;8.70;99.90;;;;;;5028603;28;20056;-54
2023/11/16 01:01:22;;;;;;;9.40;1.90;;;8.70;99.90;;;;;;5030456;28;20037;-56
2023/11/16 01:03:49;;;;;;;4.30;1.47;;;8.70;99.90;;;;;;5029016;28;20038;-53
2023/11/16 01:06:15;;;;;;;12.17;2.43;;;8.70;99.90;;;;;;5028752;28;20029;-54
2023/11/16 01:08:41;;;;;;;10.37;1.70;;;8.80;99.90;;;;;;5011977;28;20041;-53
2023/11/16 01:11:12;;;;;;;8.17;1.27;;;8.70;99.90;;;;;;5028814;28;20398;-54
2023/11/16 01:13:38;;;;;;;6.10;1.80;;;8.70;99.90;;;;;;5030217;28;20411;-55
2023/11/16 01:16:14;;;;;;;6.73;1.40;;;8.70;99.90;;;;;;5028926;28;20061;-55
2023/11/16 01:18:50;;;;;;;6.57;1.87;;;8.70;99.90;;;;;;5029705;28;20083;-51
2023/11/16 01:21:19;;;;;;;8.30;2.17;;;8.70;99.90;;;;;;5028826;28;20057;-51
2023/11/16 01:23:47;;;;;;;6.57;1.77;;;8.70;99.90;;;;;;5030094;28;20037;-55
2023/11/16 01:26:15;;;;;;;7.00;1.70;;;8.70;99.90;;;;;;5030015;28;20482;-51
2023/11/16 01:28:53;;;;;;;9.70;2.33;;;8.70;99.90;;;;;;5028648;28;20033;-54
2023/11/16 01:31:19;;;;;;;8.43;1.50;;;8.80;99.90;;;;;;5031250;28;20041;-55
2023/11/16 01:33:46;;;;;;;4.53;1.10;;;8.80;99.90;;;;;;5033605;28;20045;-56
2023/11/16 01:36:13;;;;;;;6.40;1.17;;;8.70;99.90;;;;;;5032246;28;20372;-52
2023/11/16 01:38:42;;;;;;;4.10;1.20;;;8.80;99.90;;;;;;5031733;28;20480;-55
2023/11/16 01:41:09;;;;;;;5.72;1.42;;;8.80;99.90;;;;;;5032361;28;20030;-56
2023/11/16 01:43:36;;;;;;;5.33;1.43;;;8.70;99.90;;;;;;5032118;28;20033;-55
2023/11/16 01:46:06;;;;;;;9.27;1.60;;;8.70;99.90;;;;;;5033396;28;20033;-55
2023/11/16 01:48:45;;;;;;;8.33;2.00;;;8.70;99.90;;;;;;5032913;28;20045;-55
2023/11/16 01:51:14;;;;;;;7.78;1.70;;;8.60;99.90;;;;;;5032129;28;20029;-54
2023/11/16 01:53:43;;;;;;;8.55;1.83;;;8.70;99.90;;;;;;5033387;28;20025;-55
2023/11/16 01:56:10;;;;;;;6.72;1.77;;;8.70;99.90;;;;;;5032151;28;20071;-55
2023/11/16 01:58:37;;;;;;;7.90;1.27;;;8.80;99.90;;;;;;5031567;28;20034;-55
2023/11/16 02:01:04;;;;;;;5.43;1.30;;;8.70;99.90;;;;;;5032006;28;20033;-53
2023/11/16 02:03:31;;;;;;;6.90;1.47;;;8.70;99.90;;;;;;5032118;28;20075;-55
2023/11/16 02:05:56;;;;;;;8.63;1.60;;;8.70;99.90;;;;;;5031951;28;20037;-56
2023/11/16 02:08:23;;;;;;;8.07;1.27;;;8.60;99.90;;;;;;5031519;28;20441;-55
2023/11/16 02:10:49;;;;;;;7.43;1.47;;;8.60;99.90;;;;;;5031474;28;20029;-54
2023/11/16 02:13:26;;;;;;;6.87;1.40;;;8.50;99.90;;;;;;5031744;28;20493;-55
2023/11/16 02:15:56;;;;;;;4.07;1.30;;;8.50;99.90;;;;;;5031778;28;20287;-54
2023/11/16 02:18:23;;;;;;;5.20;1.33;;;8.50;99.90;;;;;;5031337;28;20431;-52
2023/11/16 02:20:49;;;;;;;4.10;1.33;;;8.50;99.90;;;;;;5031347;28;20068;-52
2023/11/16 02:23:15;;;;;;;8.00;1.50;;;8.50;99.90;;;;;;5032623;28;20105;-51
2023/11/16 02:25:45;;;;;;;3.03;1.10;;;8.60;99.90;;;;;;5031795;28;20439;-56
2023/11/16 02:28:11;;;;;;;7.63;2.10;;;8.50;99.90;;;;;;5031292;28;20029;-56
2023/11/16 02:30:37;;;;;;;5.63;1.30;;;8.40;99.90;;;;;;5031284;28;20044;-52
2023/11/16 02:33:06;;;;;;;6.63;1.30;;;8.30;99.90;;;;;;5032871;28;20061;-54
2023/11/16 02:35:35;;;;;;;6.38;1.38;;;8.30;99.90;;;;;;5031682;28;20052;-55
2023/11/16 02:38:02;;;;;;;5.50;1.60;;;8.30;99.90;;;;;;5031172;28;20124;-54
2023/11/16 02:40:29;;;;;;;5.90;1.30;;;8.20;99.90;;;;;;5031021;28;20029;-55
2023/11/16 02:42:55;;;;;;;5.70;1.50;;;8.20;99.90;;;;;;5031056;28;20384;-55
2023/11/16 02:45:24;;;;;;;7.90;1.77;;;8.20;99.90;;;;;;5031152;28;20070;-55
2023/11/16 02:47:50;;;;;;;;;;;8.10;99.90;;;;;;5031695;28;20045;-56
2023/11/16 02:50:16;;;;;;;7.83;1.80;;;8.10;99.90;;;;;;5032103;28;19913;-54
2023/11/16 02:52:43;;;;;;;5.87;1.40;;;8.00;99.90;;;;;;5032276;28;20040;-55
2023/11/16 02:55:09;;;;;;;9.27;2.03;;;8.00;99.90;;;;;;5032094;28;20080;-54
2023/11/16 02:57:36;;;;;;;10.47;1.90;;;7.90;99.90;;;;;;5030712;28;20124;-55
2023/11/16 03:00:03;;;;;;;8.63;2.27;;;7.90;99.90;;;;;;5030533;28;20060;-53
2023/11/16 03:02:30;;;;;;;6.57;1.37;;;7.90;99.90;;;;;;5032116;28;20087;-52
2023/11/16 03:04:56;;;;;;;9.10;1.63;;;8.00;99.90;;;;;;5030516;28;20088;-56
2023/11/16 03:07:21;;;;;;;5.83;1.40;;;8.10;99.90;;;;;;5030769;28;20037;-55
2023/11/16 03:09:47;;;;;;;12.50;1.93;;;8.20;99.90;;;;;;5031401;28;20025;-55
2023/11/16 03:12:14;;;;;;;8.33;2.00;;;8.30;99.90;;;;;;5031944;28;20390;-55
2023/11/16 03:14:40;;;;;;;10.37;2.07;;;8.30;99.90;;;;;;5030448;28;20071;-55
2023/11/16 03:17:06;;;;;;;8.23;2.30;;;8.40;99.90;;;;;;5030391;28;20026;-55
2023/11/16 03:19:34;;;;;;;6.63;1.63;;;8.30;99.90;;;;;;5031116;28;20025;-55
2023/11/16 03:22:03;;;;;;;9.37;1.80;;;8.30;99.90;;;;;;5031509;28;20046;-55
2023/11/16 03:24:30;;;;;;;7.63;2.20;;;8.30;99.90;;;;;;5031859;28;20037;-54
2023/11/16 03:26:56;;;;;;;5.90;1.77;;;8.40;99.90;;;;;;5031512;28;20095;-53
2023/11/16 03:29:21;;;;;;;6.13;1.80;;;8.40;99.90;;;;;;5029794;28;20487;-55
2023/11/16 03:31:47;;;;;;;8.30;2.03;;;8.30;99.90;;;;;;5031362;28;20075;-56
2023/11/16 03:34:13;;;;;;;7.17;1.80;;;8.40;99.90;;;;;;5031113;28;20026;-55
2023/11/16 03:36:39;;;;;;;9.10;2.13;;;8.30;99.90;;;;;;5031335;28;20035;-51
2023/11/16 03:39:04;;;;;;;10.70;2.43;;;8.40;99.90;;;;;;5030991;28;20470;-53
2023/11/16 03:41:30;;;;;;;5.93;1.90;;;8.40;99.90;;;;;;5029894;28;20029;-55
2023/11/16 03:43:56;;;;;;;6.03;1.63;;;8.40;99.90;;;;;;5029848;28;20379;-55
2023/11/16 03:46:22;;;;;;;7.33;2.23;;;8.40;99.90;;;;;;5029958;28;20478;-55
2023/11/16 03:48:47;;;;;;;8.43;2.10;;;8.30;99.90;;;;;;5030468;28;20075;-55
2023/11/16 03:51:13;;;;;;;9.80;2.20;;;8.40;99.90;;;;;;5029706;28;20466;-55
2023/11/16 03:53:39;;;;;;;7.97;2.20;;;8.40;99.90;;;;;;5030359;28;20029;-55
2023/11/16 03:56:07;;;;;;;8.40;2.20;;;8.30;99.90;;;;;;5031083;28;20051;-55
2023/11/16 03:58:33;;;;;;;7.10;2.07;;;8.30;99.90;;;;;;5029629;28;20600;-51
2023/11/16 04:00:59;;;;;;;14.13;2.20;;;8.30;99.90;;;;;;5031572;28;20428;-55
2023/11/16 04:03:25;;;;;;;9.10;2.20;;;8.40;99.90;;;;;;5030795;28;20029;-55
2023/11/16 04:05:51;;;;;;;8.83;2.13;;;8.30;99.90;;;;;;5029603;28;20470;-55
2023/11/16 04:08:16;;;;;;;5.33;1.57;;;8.30;99.90;;;;;;5030541;28;20036;-55
2023/11/16 04:10:42;;;;;;;7.57;2.10;;;8.30;99.90;;;;;;5029259;28;20086;-55
2023/11/16 04:13:09;;;;;;;10.50;2.10;;;8.30;99.90;;;;;;5029736;28;20045;-54
2023/11/16 04:15:34;;;;;;;8.23;1.70;;;8.30;99.90;;;;;;5031010;28;20462;-55
2023/11/16 04:18:03;;;;;;;7.83;2.00;;;8.40;99.90;;;;;;5030690;28;20453;-55
2023/11/16 04:20:29;;;;;;;5.73;2.10;;;8.30;99.90;;;;;;5030878;28;20025;-53
2023/11/16 04:22:55;;;;;;;8.47;2.63;;;8.40;99.90;;;;;;5029585;28;20030;-51
2023/11/16 04:25:33;;;;;;;11.23;2.33;;;8.40;99.90;;;;;;5030982;28;20025;-55
2023/11/16 04:27:59;;;;;;;8.60;2.00;;;8.40;99.90;;;;;;5029451;28;20084;-54
2023/11/16 04:30:30;;;;;;;8.57;1.80;;;8.40;99.90;;;;;;5029351;28;20037;-55
2023/11/16 04:32:59;;;;;;;6.00;1.67;;;8.40;99.90;;;;;;5029356;28;20029;-54
2023/11/16 04:35:25;;;;;;;10.68;1.88;;;8.40;99.90;;;;;;5030674;28;20033;-55
2023/11/16 04:37:53;;;;;;;9.20;2.10;;;8.40;99.90;;;;;;5030688;28;20432;-55
2023/11/16 04:40:19;;;;;;;5.90;1.40;;;8.40;99.90;;;;;;5030576;28;20489;-55
2023/11/16 04:42:47;;;;;;;4.30;1.70;;;8.40;99.90;;;;;;5030858;28;20367;-55
2023/11/16 04:45:14;;;;;;;9.37;1.93;;;8.50;99.90;;;;;;5030744;28;20398;-53
2023/11/16 04:47:43;;;;;;;11.73;2.07;;;8.50;99.90;;;;;;5030580;28;20491;-55
2023/11/16 04:50:10;;;;;;;6.97;1.88;;;8.50;99.90;;;;;;5030491;28;20029;-52
2023/11/16 04:52:37;;;;;;;5.17;1.27;;;8.50;99.90;;;;;;5030662;28;20044;-54
2023/11/16 04:55:03;;;;;;;8.43;1.57;;;8.50;99.90;;;;;;5030707;28;20029;-54
2023/11/16 04:57:29;;;;;;;6.70;1.53;;;8.50;99.90;;;;;;5030620;28;20036;-56
2023/11/16 04:59:55;;;;;;;6.20;1.67;;;8.40;99.90;;;;;;5030182;28;20033;-55
2023/11/16 05:02:21;;;;;;;8.90;2.20;;;8.40;99.90;;;;;;5030564;28;20440;-54
2023/11/16 05:04:47;;;;;;;6.57;1.87;;;8.30;99.90;;;;;;5032446;28;20120;-53
2023/11/16 05:07:13;;;;;;;5.23;1.73;;;8.30;99.90;;;;;;5035017;28;20034;-52
2023/11/16 05:09:39;;;;;;;7.47;1.60;;;8.40;99.90;;;;;;5034396;28;20029;-55
2023/11/16 05:12:05;;;;;;;8.90;1.50;;;8.40;99.90;;;;;;5034420;28;20037;-55
2023/11/16 05:14:31;;;;;;;8.10;1.80;;;8.40;99.90;;;;;;5034569;28;20026;-54
2023/11/16 05:16:57;;;;;;;3.93;1.40;;;8.40;99.90;;;;;;5034257;28;20029;-52
2023/11/16 05:19:24;;;;;;;5.87;1.30;;;8.30;99.90;;;;;;5033774;28;20037;-54
2023/11/16 05:21:49;;;;;;;9.07;1.80;;;8.30;99.90;;;;;;5034177;28;20039;-53
2023/11/16 05:24:16;;;;;;;7.73;1.87;;;8.20;99.90;;;;;;5034238;28;20116;-56
2023/11/16 05:26:44;;;;;;;6.90;1.27;;;8.20;99.90;;;;;;5033956;28;20056;-56
2023/11/16 05:29:10;;;;;;;6.97;2.33;;;8.30;99.90;;;;;;5032281;28;20037;-51
2023/11/16 05:31:36;;;;;;;7.27;1.70;;;8.30;99.90;;;;;;5032557;28;20033;-51
2023/11/16 05:34:03;;;;;;;5.17;1.40;;;8.30;99.90;;;;;;5033493;28;20092;-56
2023/11/16 05:36:29;;;;;;;8.60;2.23;;;8.30;99.90;;;;;;5033702;28;20104;-54
2023/11/16 05:38:58;;;;;;;9.37;1.60;;;8.30;99.90;;;;;;5033053;28;20601;-53
2023/11/16 05:41:23;;;;;;;8.37;1.80;;;8.30;99.90;;;;;;5033521;28;20033;-54
2023/11/16 05:43:49;;;;;;;5.43;1.60;;;8.30;99.90;;;;;;5033569;28;20033;-54
2023/11/16 05:46:15;;;;;;;10.60;2.07;;;8.30;99.90;;;;;;5033420;28;20116;-54
2023/11/16 05:48:41;;;;;;;7.97;1.77;;;8.30;99.90;;;;;;5033557;28;20039;-56
2023/11/16 05:51:07;;;;;;;8.37;1.63;;;8.30;99.90;;;;;;5033453;28;20029;-55
2023/11/16 05:53:33;;;;;;;6.37;2.10;;;8.30;99.90;;;;;;5033331;28;20420;-55
2023/11/16 05:55:59;;;;;;;8.33;1.73;;;8.30;99.90;;;;;;5033273;28;20032;-55
2023/11/16 05:58:25;;;;;;;8.47;1.60;;;8.30;99.90;;;;;;5032747;28;20018;-54
2023/11/16 06:00:52;;;;;;;7.00;1.57;;;8.30;99.90;;;;;;5033098;28;20051;-54
2023/11/16 06:03:18;;;;;;;6.47;1.60;;;8.40;99.90;;;;;;5033040;28;20022;-55
2023/11/16 06:05:44;;;;;;;7.40;2.30;;;8.40;99.90;;;;;;5031868;28;20036;-53
2023/11/16 06:08:09;;;;;;;8.83;2.03;;;8.40;99.90;;;;;;5032558;28;20030;-55
2023/11/16 06:10:35;;;;;;;5.03;1.60;;;8.40;99.90;;;;;;5032822;28;20036;-55
2023/11/16 06:13:00;;;;;;;8.57;2.10;;;8.40;99.90;;;;;;5031505;28;20025;-55
2023/11/16 06:15:28;;;;;;;4.10;1.63;;;8.40;99.90;;;;;;5032614;28;20539;-55
2023/11/16 06:17:55;;;;;;;8.37;1.70;;;8.40;99.90;;;;;;5032517;28;20053;-55
2023/11/16 06:20:20;;;;;;;7.80;1.80;;;8.40;99.90;;;;;;5032598;28;20084;-55
2023/11/16 06:22:46;;;;;;;8.13;1.63;;;8.40;99.90;;;;;;5032693;28;20030;-51
2023/11/16 06:25:12;;;;;;;6.53;1.80;;;8.40;99.90;;;;;;5032767;28;20478;-56
2023/11/16 06:27:40;;;;;;;7.27;2.00;;;8.40;99.90;;;;;;5032525;28;20426;-53
2023/11/16 06:30:07;;;;;;;6.45;1.75;;;8.40;99.90;;;;;;5032727;28;20390;-56
2023/11/16 06:32:34;;;;;;;9.43;1.90;;;8.40;99.90;;;;;;5032602;28;20037;-55
2023/11/16 06:35:00;;;;;;;7.70;1.93;;;8.40;99.90;;;;;;5032702;28;20112;-55
2023/11/16 06:37:26;;;;;;;6.50;2.10;;;8.40;99.90;;;;;;5032495;28;20036;-55
2023/11/16 06:39:52;;;;;;;6.53;1.63;;;8.40;99.90;;;;;;5032135;28;20022;-55
2023/11/16 06:42:18;;;;;;;8.13;2.40;;;8.40;99.90;;;;;;5032406;28;20048;-55
2023/11/16 06:44:44;;;;;;;5.47;1.70;;;8.40;99.90;;;;;;5032379;28;20104;-55
2023/11/16 06:47:12;;;;;;;8.67;2.60;;;8.40;99.90;;;;;;5032254;28;20103;-54
2023/11/16 06:49:37;;;;;;;7.87;1.83;;;8.30;99.90;;;;;;5031969;28;20034;-54
2023/11/16 06:52:04;;;;;;;8.60;2.50;;;8.30;99.90;;;;;;5032075;28;20501;-56
2023/11/16 06:54:32;;;;;;;18.17;4.73;;;8.40;99.90;;;;;;5032460;28;20245;-54
2023/11/16 06:56:59;;;;;;;9.90;3.80;;;8.30;99.90;;;;;;5031994;28;20501;-54
2023/11/16 06:59:25;;;;;;;9.77;2.40;;;8.30;99.90;;;;;;5031532;28;20079;-55
2023/11/16 07:01:52;;;;;;;9.43;2.57;;;8.20;99.90;;;;;;5031968;28;20124;-55
2023/11/16 07:04:18;;;;;;;10.23;2.00;;;8.20;99.90;;;;;;5031872;28;20041;-53
2023/11/16 07:06:45;;;;;;;6.03;1.47;;;8.20;99.90;;;;;;5031872;28;20478;-54
2023/11/16 07:09:11;;;;;;;10.87;2.43;;;8.20;99.90;;;;;;5031429;28;20049;-55
2023/11/16 07:11:41;;;;;;;5.57;2.03;;;8.20;99.90;;;;;;5031626;28;20041;-54
2023/11/16 07:14:07;;;;;;;6.90;2.10;;;8.20;99.90;;;;;;5031740;28;20040;-56
2023/11/16 07:16:33;;;;;;;7.50;1.87;;;8.20;99.90;;;;;;5031676;28;20034;-54
2023/11/16 07:18:58;;;;;;;7.77;2.50;;;8.20;99.90;;;;;;5031129;28;20033;-55
2023/11/16 07:21:24;;;;;;;8.37;2.63;;;8.20;99.90;;;;;;5031573;28;20064;-55
2023/11/16 07:23:50;;;;;;;12.03;2.63;;;8.20;99.90;;;;;;5031580;28;20033;-51
2023/11/16 07:26:18;;;;;;;9.10;2.20;;;8.20;99.90;;;;;;5031558;28;20025;-55
2023/11/16 07:28:45;;;;;;;10.50;2.57;;;8.20;99.90;;;;;;5030164;28;20236;-55
2023/11/16 07:31:15;;;;;;;12.50;3.00;;;8.30;99.90;;;;;;5031287;28;20042;-52
2023/11/16 07:33:41;;;;;;;6.33;2.40;;;8.20;99.90;;;;;;5031861;28;20042;-55
2023/11/16 07:36:07;;;;;;;8.80;2.60;;;8.20;99.90;;;;;;5031648;28;20127;-55
2023/11/16 07:38:33;;;;;;;10.60;2.50;;;8.20;99.90;;;;;;5031410;28;20100;-55
2023/11/16 07:40:59;;;;;;;11.60;2.60;;;8.20;99.90;;;;;;5031876;28;20461;-51
2023/11/16 07:43:24;;;;;;;8.17;2.90;;;8.20;99.90;;;;;;5031647;28;20185;-56
2023/11/16 07:45:50;;;;;;;9.43;2.70;;;8.20;99.90;;;;;;5031578;28;20052;-56
2023/11/16 07:48:17;;;;;;;18.10;2.97;;;8.10;99.90;;;;;;5030918;28;20087;-55
2023/11/16 07:50:42;;;;;;;6.57;2.27;;;8.10;99.90;;;;;;5031312;28;20426;-56
2023/11/16 07:53:10;;;;;;;8.37;2.23;;;8.10;99.90;;;;;;5031075;28;20037;-56
2023/11/16 07:55:36;;;;;;;6.00;1.60;;;8.10;99.90;;;;;;5031130;28;20036;-56
2023/11/16 07:58:03;;;;;;;10.37;2.30;;;8.00;99.90;;;;;;5030758;28;20030;-52
2023/11/16 08:00:34;;;;;;;8.00;2.60;;;8.10;99.90;;;;;;5030887;28;20080;-55
2023/11/16 08:05:46;;;;;;;4.87;1.73;;;8.10;99.90;;;;;;5030955;28;20501;-55
2023/11/16 08:08:14;;;;;;;10.17;2.33;;;8.20;99.90;;;;;;5030564;28;20398;-52
2023/11/16 08:10:44;;;;;;;7.83;1.70;;;8.20;99.90;;;;;;5030808;28;20033;-51
2023/11/16 08:13:13;;;;;;;7.10;1.77;;;8.30;99.90;;;;;;5031021;28;20033;-53
2023/11/16 08:15:40;;;;;;;5.00;1.85;;;8.40;99.90;;;;;;5030884;28;20030;-54
2023/11/16 08:18:10;;;;;;;5.80;2.10;;;8.40;99.90;;;;;;5030546;28;20386;-55
2023/11/16 08:20:36;;;;;;;6.97;1.97;;;8.40;99.90;;;;;;5030598;28;20030;-55
2023/11/16 08:23:05;;;;;;;11.13;2.50;;;8.50;99.90;;;;;;5031075;28;20041;-55
2023/11/16 08:25:31;;;;;;;11.35;2.08;;;8.50;99.90;;;;;;5029462;28;20122;-54
2023/11/16 08:27:57;;;;;;;7.90;1.90;;;8.40;99.90;;;;;;5030230;28;20064;-54
2023/11/16 08:30:24;;;;;;;7.73;2.10;;;8.50;99.90;;;;;;5030355;28;20053;-56
2023/11/16 08:32:50;;;;;;;6.70;1.70;;;8.50;99.90;;;;;;5030549;28;20049;-52
2023/11/16 08:35:15;;;;;;;8.47;2.07;;;8.50;99.90;;;;;;5030431;28;20038;-56
2023/11/16 08:37:42;;;;;;;9.13;2.30;;;8.50;99.90;;;;;;5030377;28;20021;-54
2023/11/16 08:40:18;;;;;;;9.57;2.03;;;8.60;99.90;;;;;;5032987;28;20426;-51
2023/11/16 08:42:44;;;;;;;6.07;2.07;;;8.70;99.90;;;;;;5034710;28;20122;-54
2023/11/16 08:45:17;;;;;;;6.50;2.27;;;8.70;99.90;;;;;;5034586;28;20087;-56
2023/11/16 08:47:47;;;;;;;5.77;2.07;;;8.70;99.90;;;;;;5034866;28;20037;-55
2023/11/16 08:50:13;;;;;;;;;;;8.70;99.90;;;;;;5035171;28;20042;-52
2023/11/16 08:52:42;;;;;;;9.50;2.00;;;8.70;99.90;;;;;;5034744;28;19924;-55
2023/11/16 08:55:11;;;;;;;8.52;1.70;;;8.70;99.90;;;;;;5034302;28;20033;-52
2023/11/16 08:57:39;;;;;;;12.93;2.40;;;8.80;99.90;;;;;;5034545;28;20482;-55
2023/11/16 09:02:51;;;;;;;7.10;1.80;;;8.80;99.90;;;;;;5034409;28;20029;-55
2023/11/16 09:05:18;;;;;;;7.20;1.90;;;8.90;99.90;;;;;;5034607;28;20052;-56
2023/11/16 09:07:45;;;;;;;10.50;2.10;;;8.90;99.90;;;;;;5033955;28;20040;-56
2023/11/16 09:10:13;;;;;;;10.23;1.90;;;9.00;99.90;;;;;;5034335;28;20550;-55
2023/11/16 09:12:42;;;;;;;9.23;2.30;;;9.00;99.90;;;;;;5034387;28;20367;-54
2023/11/16 09:15:10;;;;;;;9.25;2.00;;;9.00;99.90;;;;;;5034430;28;20030;-53
2023/11/16 09:17:37;;;;;;;7.67;1.90;;;9.00;99.90;;;;;;5033959;28;20052;-54
2023/11/16 09:20:10;;;;;;;4.23;1.77;;;9.00;99.90;;;;;;5032103;28;20026;-53
2023/11/16 09:22:39;;;;;;;7.07;2.40;;;9.00;99.90;;;;;;5033902;28;20396;-50
2023/11/16 09:25:15;;;;;;;4.63;1.90;;;8.90;99.90;;;;;;5033977;28;20037;-53
2023/11/16 09:27:42;;;;;;;6.43;1.70;;;8.90;99.90;;;;;;5033628;28;20494;-53
2023/11/16 09:30:14;;;;;;;5.70;1.83;;;8.80;99.90;;;;;;5033870;28;20484;-54
2023/11/16 09:32:40;;;;;;;11.17;2.53;;;8.80;99.90;;;;;;5033716;28;20108;-54
2023/11/16 09:35:09;;;;;;;13.23;2.50;;;8.70;99.90;;;;;;5033534;28;20033;-54
2023/11/16 09:37:36;;;;;;;6.30;2.65;;;8.70;99.90;;;;;;5033740;28;20728;-55
2023/11/16 09:40:05;;;;;;;7.37;2.63;;;8.70;99.90;;;;;;5032988;28;20048;-54
2023/11/16 09:42:33;;;;;;;6.95;2.40;;;8.70;99.90;;;;;;5033499;28;20514;-55
2023/11/16 09:45:02;;;;;;;7.83;2.00;;;8.60;99.90;;;;;;5033577;28;20052;-54
2023/11/16 09:47:31;;;;;;;6.05;2.05;;;8.60;99.90;;;;;;5033623;28;20037;-55
2023/11/16 09:49:57;;;;;;;6.28;1.88;;;8.60;99.90;;;;;;5032990;28;20037;-53
2023/11/16 09:52:28;;;;;;;7.90;2.07;;;8.60;99.90;;;;;;5032547;28;20028;-54
2023/11/16 09:55:00;;;;;;;8.00;2.50;;;8.70;99.90;;;;;;5033676;28;20300;-54
2023/11/16 09:57:31;;;;;;;9.50;1.93;;;8.70;99.90;;;;;;5033347;28;20048;-55
2023/11/16 10:00:00;;;;;;;8.00;2.27;;;8.70;99.90;;;;;;5033127;28;20041;-54
2023/11/16 10:02:26;;;;;;;7.25;2.00;;;8.70;99.90;;;;;;5033326;28;20082;-55
2023/11/16 10:04:53;;;;;;;7.33;2.20;;;8.70;99.90;;;;;;5033261;28;20474;-50
2023/11/16 10:07:26;;;;;;;7.87;2.10;;;8.70;99.90;;;;;;5033411;28;20048;-54
2023/11/16 10:09:57;;;;;;;5.33;1.80;;;8.80;99.90;;;;;;5032757;28;20041;-55
2023/11/16 10:12:23;;;;;;;6.07;2.40;;;8.80;99.90;;;;;;5033139;28;20033;-54
2023/11/16 10:14:52;;;;;;;5.43;1.83;;;8.80;99.90;;;;;;5033096;28;20108;-54
2023/11/16 10:17:21;;;;;;;8.37;2.57;;;8.80;99.90;;;;;;5033066;28;20665;-56
2023/11/16 10:19:47;;;;;;;9.07;2.50;;;8.80;99.90;;;;;;5031222;28;20430;-54
2023/11/16 10:22:13;;;;;;;10.97;2.23;;;8.80;99.90;;;;;;5032794;28;20080;-54
2023/11/16 10:24:39;;;;;;;10.00;2.30;;;8.90;99.90;;;;;;5032728;28;20025;-52
2023/11/16 10:27:06;;;;;;;8.83;2.30;;;8.80;99.90;;;;;;5032760;28;20033;-55
2023/11/16 10:29:31;;;;;;;8.47;1.97;;;8.90;99.90;;;;;;5032204;28;20033;-53
2023/11/16 10:31:59;;;;;;;8.60;2.20;;;8.80;99.90;;;;;;5032783;28;20037;-52
2023/11/16 10:34:25;;;;;;;8.30;2.40;;;8.70;99.90;;;;;;5032435;28;20080;-53
2023/11/16 10:36:55;;;;;;;6.37;1.60;;;8.70;99.90;;;;;;5032528;28;20068;-54
2023/11/16 10:39:24;;;;;;;5.53;2.40;;;8.80;99.90;;;;;;5031871;28;20427;-51
2023/11/16 10:41:50;;;;;;;;;;;8.80;99.90;;;;;;5032936;28;20080;-51
2023/11/16 10:44:17;;;;;;;6.47;1.80;;;8.90;99.90;;;;;;5032438;28;19912;-53
2023/11/16 10:46:44;;;;;;;6.43;1.97;;;8.90;99.90;;;;;;5032346;28;20057;-52
2023/11/16 10:49:11;;;;;;;5.80;1.87;;;8.90;99.90;;;;;;5031837;28;20087;-55
2023/11/16 10:51:40;;;;;;;8.13;2.00;;;9.00;99.90;;;;;;5032014;28;20038;-53
2023/11/16 10:54:12;;;;;;;7.47;1.75;;;9.00;99.90;;;;;;5031126;28;20045;-50
2023/11/16 10:56:44;;;;;;;5.27;1.97;;;9.00;99.90;;;;;;5032238;28;20060;-54
2023/11/16 10:59:16;;;;;;;8.37;1.90;;;9.00;99.90;;;;;;5032043;28;20026;-53
2023/11/16 11:01:42;;;;;;;6.97;1.73;;;8.90;99.90;;;;;;5031687;28;20348;-55
2023/11/16 11:04:08;;;;;;;9.67;2.40;;;8.90;99.90;;;;;;5031798;28;20033;-53
2023/11/16 11:06:41;;;;;;;9.33;2.10;;;8.90;99.90;;;;;;5031968;28;20061;-53
2023/11/16 11:09:09;;;;;;;5.07;1.93;;;9.00;99.90;;;;;;5031507;28;20124;-55
2023/11/16 11:11:40;;;;;;;11.00;2.43;;;9.00;99.90;;;;;;5031716;28;20042;-55
2023/11/16 11:14:07;;;;;;;6.03;1.97;;;9.00;99.90;;;;;;5031952;28;20025;-55
2023/11/16 11:16:34;;;;;;;5.87;1.70;;;9.00;99.90;;;;;;5031747;28;20036;-53
2023/11/16 11:19:03;;;;;;;8.33;2.60;;;9.00;99.90;;;;;;5031297;28;20034;-52
2023/11/16 11:21:30;;;;;;;7.20;2.20;;;9.10;99.90;;;;;;5032007;28;20116;-56
2023/11/16 11:24:04;;;;;;;6.77;1.90;;;9.10;99.90;;;;;;5031910;28;20037;-51
2023/11/16 11:26:48;;;;;;;12.07;2.10;;;9.10;99.90;;;;;;5031791;28;20132;-54
2023/11/16 11:29:14;;;;;;;6.33;2.00;;;9.20;99.90;;;;;;5030922;28;20041;-54
2023/11/16 11:31:50;;;;;;;9.10;2.17;;;9.20;99.90;;;;;;5031304;28;20040;-55
2023/11/16 11:34:16;;;;;;;9.73;2.63;;;9.20;99.90;;;;;;5031191;28;20043;-51
2023/11/16 11:36:44;;;;;;;9.00;2.30;;;9.20;99.90;;;;;;5031328;28;20048;-54
2023/11/16 11:39:14;;;;;;;6.13;1.80;;;9.20;99.90;;;;;;5030850;28;20111;-55
2023/11/16 11:41:47;;;;;;;9.37;2.53;;;9.30;99.90;;;;;;5029797;28;20076;-55
2023/11/16 11:44:14;;;;;;;10.77;2.80;;;9.40;99.90;;;;;;5031339;28;20076;-51
2023/11/16 11:46:39;;;;;;;7.87;2.60;;;9.40;99.90;;;;;;5031462;28;20444;-55
2023/11/16 11:49:06;;;;;;;10.17;2.73;;;9.40;99.90;;;;;;5030753;28;20037;-52
2023/11/16 11:51:35;;;;;;;7.17;1.97;;;9.50;99.90;;;;;;5031089;28;20032;-55
2023/11/16 11:54:01;;;;;;;4.10;1.75;;;9.40;99.90;;;;;;5031099;28;20071;-54
2023/11/16 11:56:26;;;;;;;6.97;1.73;;;9.40;99.90;;;;;;5030952;28;20045;-56
2023/11/16 11:58:53;;;;;;;9.43;2.10;;;9.40;99.90;;;;;;5030649;28;20466;-55
2023/11/16 12:01:20;;;;;;;6.40;1.77;;;9.50;99.90;;;;;;5030982;28;20033;-55
2023/11/16 12:03:57;;;;;;;8.10;1.97;;;9.40;99.90;;;;;;5031123;28;20053;-54
2023/11/16 12:06:23;;;;;;;10.73;1.73;;;9.40;99.90;;;;;;5031329;28;20037;-56
2023/11/16 12:08:52;;;;;;;8.07;2.03;;;9.40;99.90;;;;;;5030416;28;20083;-55
2023/11/16 12:11:20;;;;;;;6.18;2.05;;;9.30;99.90;;;;;;5029973;28;20033;-55
2023/11/16 12:13:45;;;;;;;6.93;2.40;;;9.30;99.90;;;;;;5028949;28;20037;-53
2023/11/16 12:16:12;;;;;;;8.20;2.43;;;9.20;99.90;;;;;;5030791;28;20052;-53
2023/11/16 12:18:48;;;;;;;9.63;2.47;;;9.20;99.90;;;;;;5030377;28;20113;-53
2023/11/16 12:21:18;;;;;;;6.67;1.80;;;9.20;99.90;;;;;;5030858;28;20056;-55
2023/11/16 12:23:49;;;;;;;6.57;2.77;;;9.20;99.90;;;;;;5030682;28;20063;-54
2023/11/16 12:26:26;;;;;;;8.80;2.40;;;9.20;99.90;;;;;;5030776;28;20433;-54
2023/11/16 12:28:52;;;;;;;7.37;2.03;;;9.10;99.90;;;;;;5030220;28;20037;-55
2023/11/16 12:31:21;;;;;;;10.33;2.40;;;9.10;99.90;;;;;;5030717;28;20444;-55
2023/11/16 12:33:47;;;;;;;6.93;2.43;;;9.10;99.90;;;;;;5030815;28;20444;-54
2023/11/16 12:36:20;;;;;;;8.40;2.10;;;9.00;99.90;;;;;;5030790;28;20034;-55
2023/11/16 12:38:48;;;;;;;6.73;2.20;;;9.00;99.90;;;;;;5030247;28;20410;-54
2023/11/16 12:41:15;;;;;;;7.33;2.37;;;8.90;99.90;;;;;;5030629;28;20033;-51
2023/11/16 12:43:41;;;;;;;8.13;2.40;;;8.90;99.90;;;;;;5030557;28;20025;-55
2023/11/16 12:46:07;;;;;;;6.60;2.67;;;8.90;99.90;;;;;;5030534;28;20397;-51
2023/11/16 12:48:33;;;;;;;7.00;2.90;;;8.90;99.90;;;;;;5030073;28;20045;-54
2023/11/16 12:50:59;;;;;;;9.03;2.60;;;8.90;99.90;;;;;;5030552;28;20030;-55
2023/11/16 12:53:25;;;;;;;9.80;2.57;;;8.90;99.90;;;;;;5030542;28;20086;-52
2023/11/16 12:55:51;;;;;;;6.30;2.30;;;9.00;99.90;;;;;;5030814;28;20030;-52
2023/11/16 12:58:17;;;;;;;8.20;2.90;;;8.90;99.90;;;;;;5030091;28;20429;-51
2023/11/16 13:00:43;;;;;;;8.50;2.33;;;8.90;99.90;;;;;;5030153;28;20021;-53